sensor_id;sensor_type;location;lat;lon;timestamp;temperature;humidity
42715;DHT22;28351;51.480;5.706;2024-02-15T00:00:02;12.00;99.90
42715;DHT22;28351;51.480;5.706;2024-02-15T00:02:28;12.00;99.90
42715;DHT22;28351;51.480;5.706;2024-02-15T00:04:54;11.90;99.90
42715;DHT22;28351;51.480;5.706;2024-02-15T00:07:19;11.90;99.90
42715;DHT22;28351;51.480;5.706;2024-02-15T00:09:47;11.90;99.90
42715;DHT22;28351;51.480;5.706;2024-02-15T00:12:13;11.90;99.90
42715;DHT22;28351;51.480;5.706;2024-02-15T00:14:39;11.90;99.90
42715;DHT22;28351;51.480;5.706;2024-02-15T00:17:04;11.90;99.90
42715;DHT22;28351;51.480;5.706;2024-02-15T00:19:30;11.90;99.90
42715;DHT22;28351;51.480;5.706;2024-02-15T00:21:56;11.90;99.90
42715;DHT22;28351;51.480;5.706;2024-02-15T00:24:22;11.90;99.90
42715;DHT22;28351;51.480;5.706;2024-02-15T00:26:47;11.90;99.90
42715;DHT22;28351;51.480;5.706;2024-02-15T00:29:13;11.80;99.90
42715;DHT22;28351;51.480;5.706;2024-02-15T00:31:39;11.80;99.90
42715;DHT22;28351;51.480;5.706;2024-02-15T00:34:05;11.80;99.90
42715;DHT22;28351;51.480;5.706;2024-02-15T00:36:31;11.80;99.90
42715;DHT22;28351;51.480;5.706;2024-02-15T00:38:58;11.80;99.90
42715;DHT22;28351;51.480;5.706;2024-02-15T00:41:24;11.80;99.90
42715;DHT22;28351;51.480;5.706;2024-02-15T00:43:50;11.80;99.90
42715;DHT22;28351;51.480;5.706;2024-02-15T00:46:16;11.80;99.90
42715;DHT22;28351;51.480;5.706;2024-02-15T00:48:41;11.80;99.90
42715;DHT22;28351;51.480;5.706;2024-02-15T00:51:07;11.80;99.90
42715;DHT22;28351;51.480;5.706;2024-02-15T00:53:32;11.80;99.90
42715;DHT22;28351;51.480;5.706;2024-02-15T00:55:58;11.80;99.90
42715;DHT22;28351;51.480;5.706;2024-02-15T00:58:24;11.80;99.90
42715;DHT22;28351;51.480;5.706;2024-02-15T01:00:50;11.80;99.90
42715;DHT22;28351;51.480;5.706;2024-02-15T01:03:16;11.80;99.90
42715;DHT22;28351;51.480;5.706;2024-02-15T01:05:42;11.80;99.90
42715;DHT22;28351;51.480;5.706;2024-02-15T01:08:07;11.80;99.90
42715;DHT22;28351;51.480;5.706;2024-02-15T01:10:34;11.80;99.90
42715;DHT22;28351;51.480;5.706;2024-02-15T01:13:00;11.80;99.90
42715;DHT22;28351;51.480;5.706;2024-02-15T01:15:25;11.80;99.90
42715;DHT22;28351;51.480;5.706;2024-02-15T01:17:51;11.80;99.90
42715;DHT22;28351;51.480;5.706;2024-02-15T01:20:16;11.90;99.90
42715;DHT22;28351;51.480;5.706;2024-02-15T01:22:42;11.90;99.90
42715;DHT22;28351;51.480;5.706;2024-02-15T01:25:09;11.90;99.90
42715;DHT22;28351;51.480;5.706;2024-02-15T01:27:45;11.90;99.90
42715;DHT22;28351;51.480;5.706;2024-02-15T01:30:11;11.90;99.90
42715;DHT22;28351;51.480;5.706;2024-02-15T01:32:36;11.80;99.90
42715;DHT22;28351;51.480;5.706;2024-02-15T01:35:02;11.90;99.90
42715;DHT22;28351;51.480;5.706;2024-02-15T01:37:31;11.90;99.90
42715;DHT22;28351;51.480;5.706;2024-02-15T01:39:59;11.90;99.90
42715;DHT22;28351;51.480;5.706;2024-02-15T01:42:25;11.80;99.90
42715;DHT22;28351;51.480;5.706;2024-02-15T01:44:50;11.80;99.90
42715;DHT22;28351;51.480;5.706;2024-02-15T01:47:18;11.80;99.90
42715;DHT22;28351;51.480;5.706;2024-02-15T01:49:44;11.70;99.90
42715;DHT22;28351;51.480;5.706;2024-02-15T01:52:10;11.70;99.90
42715;DHT22;28351;51.480;5.706;2024-02-15T01:54:45;11.70;99.90
42715;DHT22;28351;51.480;5.706;2024-02-15T01:57:19;11.70;99.90
42715;DHT22;28351;51.480;5.706;2024-02-15T01:59:49;11.70;99.90
42715;DHT22;28351;51.480;5.706;2024-02-15T02:02:15;11.70;99.90
42715;DHT22;28351;51.480;5.706;2024-02-15T02:04:42;11.70;99.90
42715;DHT22;28351;51.480;5.706;2024-02-15T02:07:07;11.70;99.90
42715;DHT22;28351;51.480;5.706;2024-02-15T02:09:33;11.70;99.90
42715;DHT22;28351;51.480;5.706;2024-02-15T02:11:59;11.70;99.90
42715;DHT22;28351;51.480;5.706;2024-02-15T02:14:25;11.80;99.90
42715;DHT22;28351;51.480;5.706;2024-02-15T02:16:51;11.80;99.90
42715;DHT22;28351;51.480;5.706;2024-02-15T02:19:17;11.80;99.90
42715;DHT22;28351;51.480;5.706;2024-02-15T02:21:43;11.80;99.90
42715;DHT22;28351;51.480;5.706;2024-02-15T02:24:12;11.80;99.90
42715;DHT22;28351;51.480;5.706;2024-02-15T02:26:38;11.90;99.90
42715;DHT22;28351;51.480;5.706;2024-02-15T02:29:04;11.80;99.90
42715;DHT22;28351;51.480;5.706;2024-02-15T02:31:33;11.90;99.90
42715;DHT22;28351;51.480;5.706;2024-02-15T02:33:59;11.90;99.90
42715;DHT22;28351;51.480;5.706;2024-02-15T02:36:26;11.90;99.90
42715;DHT22;28351;51.480;5.706;2024-02-15T02:38:52;11.80;99.90
42715;DHT22;28351;51.480;5.706;2024-02-15T02:41:17;11.80;99.90
42715;DHT22;28351;51.480;5.706;2024-02-15T02:43:45;11.70;99.90
42715;DHT22;28351;51.480;5.706;2024-02-15T02:46:11;11.70;99.90
42715;DHT22;28351;51.480;5.706;2024-02-15T02:48:37;11.70;99.90
42715;DHT22;28351;51.480;5.706;2024-02-15T02:51:03;11.70;99.90
42715;DHT22;28351;51.480;5.706;2024-02-15T02:53:28;11.60;99.90
42715;DHT22;28351;51.480;5.706;2024-02-15T02:55:55;11.60;99.90
42715;DHT22;28351;51.480;5.706;2024-02-15T02:58:21;11.60;99.90
42715;DHT22;28351;51.480;5.706;2024-02-15T03:00:48;11.60;99.90
42715;DHT22;28351;51.480;5.706;2024-02-15T03:03:15;11.60;99.90
42715;DHT22;28351;51.480;5.706;2024-02-15T03:05:40;11.60;99.90
42715;DHT22;28351;51.480;5.706;2024-02-15T03:08:08;11.60;99.90
42715;DHT22;28351;51.480;5.706;2024-02-15T03:10:33;11.50;99.90
42715;DHT22;28351;51.480;5.706;2024-02-15T03:12:59;11.60;99.90
42715;DHT22;28351;51.480;5.706;2024-02-15T03:15:24;11.60;99.90
42715;DHT22;28351;51.480;5.706;2024-02-15T03:17:50;11.60;99.90
42715;DHT22;28351;51.480;5.706;2024-02-15T03:20:16;11.70;99.90
42715;DHT22;28351;51.480;5.706;2024-02-15T03:22:55;11.70;99.90
42715;DHT22;28351;51.480;5.706;2024-02-15T03:25:21;11.70;99.90
42715;DHT22;28351;51.480;5.706;2024-02-15T03:27:50;11.70;99.90
42715;DHT22;28351;51.480;5.706;2024-02-15T03:30:24;11.70;99.90
42715;DHT22;28351;51.480;5.706;2024-02-15T03:32:50;11.70;99.90
42715;DHT22;28351;51.480;5.706;2024-02-15T03:35:22;11.70;99.90
42715;DHT22;28351;51.480;5.706;2024-02-15T03:37:48;11.70;99.90
42715;DHT22;28351;51.480;5.706;2024-02-15T03:40:16;11.70;99.90
42715;DHT22;28351;51.480;5.706;2024-02-15T03:42:42;11.70;99.90
42715;DHT22;28351;51.480;5.706;2024-02-15T03:45:07;11.70;99.90
42715;DHT22;28351;51.480;5.706;2024-02-15T03:47:33;11.70;99.90
42715;DHT22;28351;51.480;5.706;2024-02-15T03:50:00;11.70;99.90
42715;DHT22;28351;51.480;5.706;2024-02-15T03:52:25;11.80;99.90
42715;DHT22;28351;51.480;5.706;2024-02-15T03:54:51;11.80;99.90
42715;DHT22;28351;51.480;5.706;2024-02-15T03:57:18;11.80;99.90
42715;DHT22;28351;51.480;5.706;2024-02-15T03:59:46;11.80;99.90
42715;DHT22;28351;51.480;5.706;2024-02-15T04:02:15;11.80;99.90
42715;DHT22;28351;51.480;5.706;2024-02-15T04:04:41;11.80;99.90
42715;DHT22;28351;51.480;5.706;2024-02-15T04:07:08;11.80;99.90
42715;DHT22;28351;51.480;5.706;2024-02-15T04:09:33;11.80;99.90
42715;DHT22;28351;51.480;5.706;2024-02-15T04:12:01;11.80;99.90
42715;DHT22;28351;51.480;5.706;2024-02-15T04:14:26;11.80;99.90
42715;DHT22;28351;51.480;5.706;2024-02-15T04:16:52;11.80;99.90
42715;DHT22;28351;51.480;5.706;2024-02-15T04:19:18;11.80;99.90
42715;DHT22;28351;51.480;5.706;2024-02-15T04:21:45;11.90;99.90
42715;DHT22;28351;51.480;5.706;2024-02-15T04:24:11;11.80;99.90
42715;DHT22;28351;51.480;5.706;2024-02-15T04:26:37;11.90;99.90
42715;DHT22;28351;51.480;5.706;2024-02-15T04:29:03;11.90;99.90
42715;DHT22;28351;51.480;5.706;2024-02-15T04:31:29;11.90;99.90
42715;DHT22;28351;51.480;5.706;2024-02-15T04:33:54;11.90;99.90
42715;DHT22;28351;51.480;5.706;2024-02-15T04:36:21;11.90;99.90
42715;DHT22;28351;51.480;5.706;2024-02-15T04:38:49;11.90;99.90
42715;DHT22;28351;51.480;5.706;2024-02-15T04:41:16;11.90;99.90
42715;DHT22;28351;51.480;5.706;2024-02-15T04:43:47;11.90;99.90
42715;DHT22;28351;51.480;5.706;2024-02-15T04:46:13;11.90;99.90
42715;DHT22;28351;51.480;5.706;2024-02-15T04:48:39;11.90;99.90
42715;DHT22;28351;51.480;5.706;2024-02-15T04:51:07;11.90;99.90
42715;DHT22;28351;51.480;5.706;2024-02-15T04:53:45;11.90;99.90
42715;DHT22;28351;51.480;5.706;2024-02-15T04:56:13;11.90;99.90
42715;DHT22;28351;51.480;5.706;2024-02-15T04:58:42;11.80;99.90
42715;DHT22;28351;51.480;5.706;2024-02-15T05:01:12;11.80;99.90
42715;DHT22;28351;51.480;5.706;2024-02-15T05:03:37;11.80;99.90
42715;DHT22;28351;51.480;5.706;2024-02-15T05:06:05;11.80;99.90
42715;DHT22;28351;51.480;5.706;2024-02-15T05:08:33;11.80;99.90
42715;DHT22;28351;51.480;5.706;2024-02-15T05:11:00;11.80;99.90
42715;DHT22;28351;51.480;5.706;2024-02-15T05:13:25;11.80;99.90
42715;DHT22;28351;51.480;5.706;2024-02-15T05:15:51;11.70;99.90
42715;DHT22;28351;51.480;5.706;2024-02-15T05:18:16;11.80;99.90
42715;DHT22;28351;51.480;5.706;2024-02-15T05:20:42;11.70;99.90
42715;DHT22;28351;51.480;5.706;2024-02-15T05:23:08;11.70;99.90
42715;DHT22;28351;51.480;5.706;2024-02-15T05:25:33;11.70;99.90
42715;DHT22;28351;51.480;5.706;2024-02-15T05:28:00;11.70;99.90
42715;DHT22;28351;51.480;5.706;2024-02-15T05:30:26;11.80;99.90
42715;DHT22;28351;51.480;5.706;2024-02-15T05:32:51;11.80;99.90
42715;DHT22;28351;51.480;5.706;2024-02-15T05:35:18;11.80;99.90
42715;DHT22;28351;51.480;5.706;2024-02-15T05:37:44;11.80;99.90
42715;DHT22;28351;51.480;5.706;2024-02-15T05:40:09;11.80;99.90
42715;DHT22;28351;51.480;5.706;2024-02-15T05:42:43;11.80;99.90
42715;DHT22;28351;51.480;5.706;2024-02-15T05:47:53;11.80;99.90
42715;DHT22;28351;51.480;5.706;2024-02-15T05:50:18;11.80;99.90
42715;DHT22;28351;51.480;5.706;2024-02-15T05:52:48;11.80;99.90
42715;DHT22;28351;51.480;5.706;2024-02-15T05:55:14;11.80;99.90
42715;DHT22;28351;51.480;5.706;2024-02-15T05:57:43;11.80;99.90
42715;DHT22;28351;51.480;5.706;2024-02-15T06:00:08;11.80;99.90
42715;DHT22;28351;51.480;5.706;2024-02-15T06:02:34;11.80;99.90
42715;DHT22;28351;51.480;5.706;2024-02-15T06:05:00;11.80;99.90
42715;DHT22;28351;51.480;5.706;2024-02-15T06:07:29;11.80;99.90
42715;DHT22;28351;51.480;5.706;2024-02-15T06:09:54;11.80;99.90
42715;DHT22;28351;51.480;5.706;2024-02-15T06:12:20;11.80;99.90
42715;DHT22;28351;51.480;5.706;2024-02-15T06:14:45;11.80;99.90
42715;DHT22;28351;51.480;5.706;2024-02-15T06:17:11;11.80;99.90
42715;DHT22;28351;51.480;5.706;2024-02-15T06:19:37;11.70;99.90
42715;DHT22;28351;51.480;5.706;2024-02-15T06:22:03;11.70;99.90
42715;DHT22;28351;51.480;5.706;2024-02-15T06:24:29;11.80;99.90
42715;DHT22;28351;51.480;5.706;2024-02-15T06:26:55;11.80;99.90
42715;DHT22;28351;51.480;5.706;2024-02-15T06:29:25;11.70;99.90
42715;DHT22;28351;51.480;5.706;2024-02-15T06:32:09;11.70;99.90
42715;DHT22;28351;51.480;5.706;2024-02-15T06:34:53;11.70;99.90
42715;DHT22;28351;51.480;5.706;2024-02-15T06:37:38;11.70;99.90
42715;DHT22;28351;51.480;5.706;2024-02-15T06:40:22;11.70;99.90
42715;DHT22;28351;51.480;5.706;2024-02-15T06:42:48;11.70;99.90
42715;DHT22;28351;51.480;5.706;2024-02-15T06:45:13;11.70;99.90
42715;DHT22;28351;51.480;5.706;2024-02-15T06:47:42;11.70;99.90
42715;DHT22;28351;51.480;5.706;2024-02-15T06:50:12;11.70;99.90
42715;DHT22;28351;51.480;5.706;2024-02-15T06:52:40;11.70;99.90
42715;DHT22;28351;51.480;5.706;2024-02-15T06:55:07;11.70;99.90
42715;DHT22;28351;51.480;5.706;2024-02-15T06:57:33;11.70;99.90
42715;DHT22;28351;51.480;5.706;2024-02-15T07:00:03;11.70;99.90
42715;DHT22;28351;51.480;5.706;2024-02-15T07:02:35;11.70;99.90
42715;DHT22;28351;51.480;5.706;2024-02-15T07:05:07;11.70;99.90
42715;DHT22;28351;51.480;5.706;2024-02-15T07:07:32;11.70;99.90
42715;DHT22;28351;51.480;5.706;2024-02-15T07:09:59;11.70;99.90
42715;DHT22;28351;51.480;5.706;2024-02-15T07:12:28;11.70;99.90
42715;DHT22;28351;51.480;5.706;2024-02-15T07:14:53;11.70;99.90
42715;DHT22;28351;51.480;5.706;2024-02-15T07:17:20;11.70;99.90
42715;DHT22;28351;51.480;5.706;2024-02-15T07:19:45;11.80;99.90
42715;DHT22;28351;51.480;5.706;2024-02-15T07:22:14;11.80;99.90
42715;DHT22;28351;51.480;5.706;2024-02-15T07:24:42;11.80;99.90
42715;DHT22;28351;51.480;5.706;2024-02-15T07:27:15;11.80;99.90
42715;DHT22;28351;51.480;5.706;2024-02-15T07:29:44;11.80;99.90
42715;DHT22;28351;51.480;5.706;2024-02-15T07:32:10;11.80;99.90
42715;DHT22;28351;51.480;5.706;2024-02-15T07:34:37;11.80;99.90
42715;DHT22;28351;51.480;5.706;2024-02-15T07:37:02;11.80;99.90
42715;DHT22;28351;51.480;5.706;2024-02-15T07:39:28;11.70;99.90
42715;DHT22;28351;51.480;5.706;2024-02-15T07:41:54;11.80;99.90
42715;DHT22;28351;51.480;5.706;2024-02-15T07:44:20;11.70;99.90
42715;DHT22;28351;51.480;5.706;2024-02-15T07:46:47;11.80;99.90
42715;DHT22;28351;51.480;5.706;2024-02-15T07:49:13;11.80;99.90
42715;DHT22;28351;51.480;5.706;2024-02-15T07:51:38;11.80;99.90
42715;DHT22;28351;51.480;5.706;2024-02-15T07:54:04;11.80;99.90
42715;DHT22;28351;51.480;5.706;2024-02-15T07:56:30;11.80;99.90
42715;DHT22;28351;51.480;5.706;2024-02-15T07:58:55;11.80;99.90
42715;DHT22;28351;51.480;5.706;2024-02-15T08:01:20;11.80;99.90
42715;DHT22;28351;51.480;5.706;2024-02-15T08:03:46;11.80;99.90
42715;DHT22;28351;51.480;5.706;2024-02-15T08:06:12;11.80;99.90
42715;DHT22;28351;51.480;5.706;2024-02-15T08:08:39;11.80;99.90
42715;DHT22;28351;51.480;5.706;2024-02-15T08:11:09;11.80;99.90
42715;DHT22;28351;51.480;5.706;2024-02-15T08:13:43;11.80;99.90
42715;DHT22;28351;51.480;5.706;2024-02-15T08:16:08;11.80;99.90
42715;DHT22;28351;51.480;5.706;2024-02-15T08:18:34;11.80;99.90
42715;DHT22;28351;51.480;5.706;2024-02-15T08:21:01;11.80;99.90
42715;DHT22;28351;51.480;5.706;2024-02-15T08:23:44;11.80;99.90
42715;DHT22;28351;51.480;5.706;2024-02-15T08:26:12;11.90;99.90
42715;DHT22;28351;51.480;5.706;2024-02-15T08:28:38;11.90;99.90
42715;DHT22;28351;51.480;5.706;2024-02-15T08:31:03;11.90;99.90
42715;DHT22;28351;51.480;5.706;2024-02-15T08:33:29;11.90;99.90
42715;DHT22;28351;51.480;5.706;2024-02-15T08:35:55;12.00;99.90
42715;DHT22;28351;51.480;5.706;2024-02-15T08:38:23;12.10;99.90
42715;DHT22;28351;51.480;5.706;2024-02-15T08:40:49;12.10;99.90
42715;DHT22;28351;51.480;5.706;2024-02-15T08:43:15;12.20;99.90
42715;DHT22;28351;51.480;5.706;2024-02-15T08:45:41;12.20;99.90
42715;DHT22;28351;51.480;5.706;2024-02-15T08:48:07;12.30;99.90
42715;DHT22;28351;51.480;5.706;2024-02-15T08:50:32;12.40;99.90
42715;DHT22;28351;51.480;5.706;2024-02-15T08:52:58;12.40;99.90
42715;DHT22;28351;51.480;5.706;2024-02-15T08:55:23;12.50;99.90
42715;DHT22;28351;51.480;5.706;2024-02-15T08:57:52;12.50;99.90
42715;DHT22;28351;51.480;5.706;2024-02-15T09:00:17;12.60;99.90
42715;DHT22;28351;51.480;5.706;2024-02-15T09:02:43;12.70;99.90
42715;DHT22;28351;51.480;5.706;2024-02-15T09:05:09;12.70;99.90
42715;DHT22;28351;51.480;5.706;2024-02-15T09:07:35;12.70;99.90
42715;DHT22;28351;51.480;5.706;2024-02-15T09:10:02;12.70;99.90
42715;DHT22;28351;51.480;5.706;2024-02-15T09:12:28;12.80;99.90
42715;DHT22;28351;51.480;5.706;2024-02-15T09:14:53;12.80;99.90
42715;DHT22;28351;51.480;5.706;2024-02-15T09:17:19;12.80;99.90
42715;DHT22;28351;51.480;5.706;2024-02-15T09:19:47;12.80;99.90
42715;DHT22;28351;51.480;5.706;2024-02-15T09:22:12;12.80;99.90
42715;DHT22;28351;51.480;5.706;2024-02-15T09:24:38;12.80;99.90
42715;DHT22;28351;51.480;5.706;2024-02-15T09:27:03;12.80;99.90
42715;DHT22;28351;51.480;5.706;2024-02-15T09:29:29;12.80;99.90
42715;DHT22;28351;51.480;5.706;2024-02-15T09:31:58;12.80;99.90
42715;DHT22;28351;51.480;5.706;2024-02-15T09:34:24;12.80;99.90
42715;DHT22;28351;51.480;5.706;2024-02-15T09:36:50;12.90;99.90
42715;DHT22;28351;51.480;5.706;2024-02-15T09:39:15;13.00;99.90
42715;DHT22;28351;51.480;5.706;2024-02-15T09:41:42;13.10;99.90
42715;DHT22;28351;51.480;5.706;2024-02-15T09:44:08;13.20;99.90
42715;DHT22;28351;51.480;5.706;2024-02-15T09:46:35;13.20;99.90
42715;DHT22;28351;51.480;5.706;2024-02-15T09:49:01;13.30;99.90
42715;DHT22;28351;51.480;5.706;2024-02-15T09:51:29;13.20;99.90
42715;DHT22;28351;51.480;5.706;2024-02-15T09:53:56;13.30;99.90
42715;DHT22;28351;51.480;5.706;2024-02-15T09:56:22;13.40;99.90
42715;DHT22;28351;51.480;5.706;2024-02-15T09:58:50;13.40;99.90
42715;DHT22;28351;51.480;5.706;2024-02-15T10:01:16;13.40;99.90
42715;DHT22;28351;51.480;5.706;2024-02-15T10:03:43;13.40;99.90
42715;DHT22;28351;51.480;5.706;2024-02-15T10:06:11;13.40;99.90
42715;DHT22;28351;51.480;5.706;2024-02-15T10:08:37;13.40;99.90
42715;DHT22;28351;51.480;5.706;2024-02-15T10:11:09;13.40;99.90
42715;DHT22;28351;51.480;5.706;2024-02-15T10:13:35;13.40;99.90
42715;DHT22;28351;51.480;5.706;2024-02-15T10:16:17;13.40;99.90
42715;DHT22;28351;51.480;5.706;2024-02-15T10:18:44;13.30;99.90
42715;DHT22;28351;51.480;5.706;2024-02-15T10:21:09;13.30;99.90
42715;DHT22;28351;51.480;5.706;2024-02-15T10:23:38;13.40;99.90
42715;DHT22;28351;51.480;5.706;2024-02-15T10:26:18;13.40;99.90
42715;DHT22;28351;51.480;5.706;2024-02-15T10:28:44;13.40;99.90
42715;DHT22;28351;51.480;5.706;2024-02-15T10:31:09;13.40;99.90
42715;DHT22;28351;51.480;5.706;2024-02-15T10:33:38;13.40;99.90
42715;DHT22;28351;51.480;5.706;2024-02-15T10:36:05;13.50;99.90
42715;DHT22;28351;51.480;5.706;2024-02-15T10:38:32;13.60;99.90
42715;DHT22;28351;51.480;5.706;2024-02-15T10:41:03;13.60;99.90
42715;DHT22;28351;51.480;5.706;2024-02-15T10:43:30;13.50;99.90
42715;DHT22;28351;51.480;5.706;2024-02-15T10:45:56;13.50;99.90
42715;DHT22;28351;51.480;5.706;2024-02-15T10:48:22;13.60;99.90
42715;DHT22;28351;51.480;5.706;2024-02-15T10:50:47;13.70;99.90
42715;DHT22;28351;51.480;5.706;2024-02-15T10:55:47;13.80;99.90
42715;DHT22;28351;51.480;5.706;2024-02-15T10:58:16;13.90;99.90
42715;DHT22;28351;51.480;5.706;2024-02-15T11:00:42;14.10;99.90
42715;DHT22;28351;51.480;5.706;2024-02-15T11:03:08;14.10;99.90
42715;DHT22;28351;51.480;5.706;2024-02-15T11:05:39;14.30;99.90
42715;DHT22;28351;51.480;5.706;2024-02-15T11:08:05;14.30;99.90
42715;DHT22;28351;51.480;5.706;2024-02-15T11:10:32;14.40;99.90
42715;DHT22;28351;51.480;5.706;2024-02-15T11:12:59;14.30;99.90
42715;DHT22;28351;51.480;5.706;2024-02-15T11:15:39;14.40;99.90
42715;DHT22;28351;51.480;5.706;2024-02-15T11:18:06;14.40;99.90
42715;DHT22;28351;51.480;5.706;2024-02-15T11:23:01;14.50;99.90
42715;DHT22;28351;51.480;5.706;2024-02-15T11:25:35;14.60;99.90
42715;DHT22;28351;51.480;5.706;2024-02-15T11:30:49;14.80;99.90
42715;DHT22;28351;51.480;5.706;2024-02-15T11:33:24;14.90;99.90
42715;DHT22;28351;51.480;5.706;2024-02-15T11:36:08;15.00;99.90
42715;DHT22;28351;51.480;5.706;2024-02-15T11:38:35;15.10;99.90
42715;DHT22;28351;51.480;5.706;2024-02-15T11:41:01;15.20;99.90
42715;DHT22;28351;51.480;5.706;2024-02-15T11:46:12;15.30;99.90
42715;DHT22;28351;51.480;5.706;2024-02-15T11:48:38;15.50;99.90
42715;DHT22;28351;51.480;5.706;2024-02-15T11:51:07;15.80;99.90
42715;DHT22;28351;51.480;5.706;2024-02-15T11:53:36;15.80;99.90
42715;DHT22;28351;51.480;5.706;2024-02-15T11:56:02;15.90;99.90
42715;DHT22;28351;51.480;5.706;2024-02-15T11:58:30;16.00;99.90
42715;DHT22;28351;51.480;5.706;2024-02-15T12:01:10;16.10;99.90
42715;DHT22;28351;51.480;5.706;2024-02-15T12:03:55;16.10;99.90
42715;DHT22;28351;51.480;5.706;2024-02-15T12:06:39;16.20;99.90
42715;DHT22;28351;51.480;5.706;2024-02-15T12:09:23;16.10;99.90
42715;DHT22;28351;51.480;5.706;2024-02-15T12:12:11;16.20;99.90
42715;DHT22;28351;51.480;5.706;2024-02-15T12:15:01;16.40;99.90
42715;DHT22;28351;51.480;5.706;2024-02-15T12:17:46;16.50;99.90
42715;DHT22;28351;51.480;5.706;2024-02-15T12:20:30;16.60;99.90
42715;DHT22;28351;51.480;5.706;2024-02-15T12:22:57;16.70;99.90
42715;DHT22;28351;51.480;5.706;2024-02-15T12:25:23;16.80;99.90
42715;DHT22;28351;51.480;5.706;2024-02-15T12:27:53;16.80;99.90
42715;DHT22;28351;51.480;5.706;2024-02-15T12:30:20;16.80;99.90
42715;DHT22;28351;51.480;5.706;2024-02-15T12:32:47;16.70;99.90
42715;DHT22;28351;51.480;5.706;2024-02-15T12:35:16;16.80;99.90
42715;DHT22;28351;51.480;5.706;2024-02-15T12:40:29;16.70;99.90
42715;DHT22;28351;51.480;5.706;2024-02-15T12:42:55;16.70;99.90
42715;DHT22;28351;51.480;5.706;2024-02-15T12:45:21;16.80;99.90
42715;DHT22;28351;51.480;5.706;2024-02-15T12:47:49;16.90;99.90
42715;DHT22;28351;51.480;5.706;2024-02-15T12:50:15;17.00;99.90
42715;DHT22;28351;51.480;5.706;2024-02-15T12:52:42;17.00;99.90
42715;DHT22;28351;51.480;5.706;2024-02-15T12:55:13;17.10;99.90
42715;DHT22;28351;51.480;5.706;2024-02-15T12:57:42;17.00;99.90
42715;DHT22;28351;51.480;5.706;2024-02-15T13:00:11;17.00;99.90
42715;DHT22;28351;51.480;5.706;2024-02-15T13:02:49;17.00;99.90
42715;DHT22;28351;51.480;5.706;2024-02-15T13:05:16;17.00;99.90
42715;DHT22;28351;51.480;5.706;2024-02-15T13:07:44;17.10;99.90
42715;DHT22;28351;51.480;5.706;2024-02-15T13:10:09;17.30;99.90
42715;DHT22;28351;51.480;5.706;2024-02-15T13:12:36;17.50;99.90
42715;DHT22;28351;51.480;5.706;2024-02-15T13:15:02;17.50;99.90
42715;DHT22;28351;51.480;5.706;2024-02-15T13:17:29;17.60;99.90
42715;DHT22;28351;51.480;5.706;2024-02-15T13:19:54;17.60;99.90
42715;DHT22;28351;51.480;5.706;2024-02-15T13:22:27;17.50;99.90
42715;DHT22;28351;51.480;5.706;2024-02-15T13:24:53;17.30;99.90
42715;DHT22;28351;51.480;5.706;2024-02-15T13:27:20;17.30;99.90
42715;DHT22;28351;51.480;5.706;2024-02-15T13:29:47;17.40;99.90
42715;DHT22;28351;51.480;5.706;2024-02-15T13:32:12;17.50;99.90
42715;DHT22;28351;51.480;5.706;2024-02-15T13:34:39;17.90;99.90
42715;DHT22;28351;51.480;5.706;2024-02-15T13:37:05;18.20;99.90
42715;DHT22;28351;51.480;5.706;2024-02-15T13:39:30;18.20;99.90
42715;DHT22;28351;51.480;5.706;2024-02-15T13:41:58;18.10;99.90
42715;DHT22;28351;51.480;5.706;2024-02-15T13:44:24;18.20;99.90
42715;DHT22;28351;51.480;5.706;2024-02-15T13:46:49;18.30;99.90
42715;DHT22;28351;51.480;5.706;2024-02-15T13:49:15;18.70;99.90
42715;DHT22;28351;51.480;5.706;2024-02-15T13:51:40;19.90;99.90
42715;DHT22;28351;51.480;5.706;2024-02-15T13:54:06;20.80;99.90
42715;DHT22;28351;51.480;5.706;2024-02-15T13:56:33;20.50;99.90
42715;DHT22;28351;51.480;5.706;2024-02-15T13:58:58;20.50;99.90
42715;DHT22;28351;51.480;5.706;2024-02-15T14:01:24;20.10;99.90
42715;DHT22;28351;51.480;5.706;2024-02-15T14:03:50;19.50;99.90
42715;DHT22;28351;51.480;5.706;2024-02-15T14:06:17;19.00;99.90
42715;DHT22;28351;51.480;5.706;2024-02-15T14:08:43;18.70;99.90
42715;DHT22;28351;51.480;5.706;2024-02-15T14:11:08;18.30;99.90
42715;DHT22;28351;51.480;5.706;2024-02-15T14:13:34;17.90;99.90
42715;DHT22;28351;51.480;5.706;2024-02-15T14:16:01;17.60;99.90
42715;DHT22;28351;51.480;5.706;2024-02-15T14:18:28;17.40;99.90
42715;DHT22;28351;51.480;5.706;2024-02-15T14:20:54;17.20;99.90
42715;DHT22;28351;51.480;5.706;2024-02-15T14:23:19;17.20;99.90
42715;DHT22;28351;51.480;5.706;2024-02-15T14:25:45;17.20;99.90
42715;DHT22;28351;51.480;5.706;2024-02-15T14:28:10;17.20;99.90
42715;DHT22;28351;51.480;5.706;2024-02-15T14:30:36;17.20;99.90
42715;DHT22;28351;51.480;5.706;2024-02-15T14:33:20;17.30;99.90
42715;DHT22;28351;51.480;5.706;2024-02-15T14:35:48;17.40;99.90
42715;DHT22;28351;51.480;5.706;2024-02-15T14:38:13;17.50;99.90
42715;DHT22;28351;51.480;5.706;2024-02-15T14:40:41;17.40;99.90
42715;DHT22;28351;51.480;5.706;2024-02-15T14:43:08;17.20;99.90
42715;DHT22;28351;51.480;5.706;2024-02-15T14:45:34;17.20;99.90
42715;DHT22;28351;51.480;5.706;2024-02-15T14:48:01;17.10;99.90
42715;DHT22;28351;51.480;5.706;2024-02-15T14:50:28;17.10;99.90
42715;DHT22;28351;51.480;5.706;2024-02-15T14:52:54;17.00;99.90
42715;DHT22;28351;51.480;5.706;2024-02-15T14:55:20;16.90;99.90
42715;DHT22;28351;51.480;5.706;2024-02-15T14:57:46;16.80;99.90
42715;DHT22;28351;51.480;5.706;2024-02-15T15:00:12;16.90;99.90
42715;DHT22;28351;51.480;5.706;2024-02-15T15:02:40;16.80;99.90
42715;DHT22;28351;51.480;5.706;2024-02-15T15:05:06;16.70;99.90
42715;DHT22;28351;51.480;5.706;2024-02-15T15:07:51;16.60;99.90
42715;DHT22;28351;51.480;5.706;2024-02-15T15:10:35;16.60;99.90
42715;DHT22;28351;51.480;5.706;2024-02-15T15:13:19;16.40;99.90
42715;DHT22;28351;51.480;5.706;2024-02-15T15:15:44;16.40;99.90
42715;DHT22;28351;51.480;5.706;2024-02-15T15:18:12;16.30;99.90
42715;DHT22;28351;51.480;5.706;2024-02-15T15:20:37;16.30;99.90
42715;DHT22;28351;51.480;5.706;2024-02-15T15:23:03;16.30;99.90
42715;DHT22;28351;51.480;5.706;2024-02-15T15:25:30;16.30;99.90
42715;DHT22;28351;51.480;5.706;2024-02-15T15:27:56;16.30;99.90
42715;DHT22;28351;51.480;5.706;2024-02-15T15:30:24;16.30;99.90
42715;DHT22;28351;51.480;5.706;2024-02-15T15:32:50;16.40;99.90
42715;DHT22;28351;51.480;5.706;2024-02-15T15:35:15;16.40;99.90
42715;DHT22;28351;51.480;5.706;2024-02-15T15:37:43;16.40;99.90
42715;DHT22;28351;51.480;5.706;2024-02-15T15:40:09;16.40;99.90
42715;DHT22;28351;51.480;5.706;2024-02-15T15:42:37;16.40;99.90
42715;DHT22;28351;51.480;5.706;2024-02-15T15:45:04;16.40;99.90
42715;DHT22;28351;51.480;5.706;2024-02-15T15:47:30;16.50;99.90